Time;durP1;ratioP1;P1;durP2;ratioP2;P2;SDS_P1;SDS_P2;PMS_P1;PMS_P2;Temp;Humidity;BMP_temperature;BMP_pressure;BME280_temperature;BME280_humidity;BME280_pressure;Samples;Min_cycle;Max_cycle;Signal;HPM_P1;HPM_P2
2023/12/08 00:00:02;;;;;;;17.58;4.97;;;9.30;71.60;;;;;;5001033;28;20380;-90
2023/12/08 00:02:50;;;;;;;20.63;5.07;;;9.30;71.60;;;;;;4979049;28;20082;-88
2023/12/08 00:05:17;;;;;;;16.10;4.00;;;9.20;71.50;;;;;;4968917;28;20070;-90
2023/12/08 00:07:45;;;;;;;18.38;5.07;;;9.20;71.50;;;;;;4978475;28;20161;-89
2023/12/08 00:10:12;;;;;;;18.13;5.25;;;9.20;71.50;;;;;;4980344;28;20034;-89
2023/12/08 00:12:38;;;;;;;17.75;4.75;;;9.20;71.60;;;;;;4979186;28;20039;-89
2023/12/08 00:15:07;;;;;;;17.67;5.47;;;9.20;71.70;;;;;;4963351;28;20593;-94
2023/12/08 00:17:34;;;;;;;16.20;4.05;;;9.10;71.50;;;;;;4982670;28;20058;-91
2023/12/08 00:20:00;;;;;;;20.17;4.65;;;9.10;71.60;;;;;;4981722;28;20477;-91
2023/12/08 00:22:27;;;;;;;18.27;5.10;;;9.10;71.70;;;;;;4983394;28;20125;-91
2023/12/08 00:25:00;;;;;;;20.15;4.10;;;9.10;71.70;;;;;;4963640;28;20035;-91
2023/12/08 00:27:46;;;;;;;21.42;6.15;;;9.10;71.80;;;;;;4979631;28;20034;-91
2023/12/08 00:30:12;;;;;;;18.77;4.90;;;9.10;71.90;;;;;;4955799;28;20069;-92
2023/12/08 00:32:43;;;;;;;18.88;4.63;;;9.00;71.70;;;;;;4984850;28;20057;-90
2023/12/08 00:35:12;;;;;;;17.98;4.38;;;9.00;71.70;;;;;;4984283;28;20030;-90
2023/12/08 00:37:39;;;;;;;15.50;3.97;;;9.10;72.00;;;;;;4991550;28;20034;-90
2023/12/08 00:40:08;;;;;;;21.58;5.03;;;9.00;71.80;;;;;;5007362;28;20065;-90
2023/12/08 00:42:37;;;;;;;22.55;5.30;;;9.00;71.90;;;;;;4976502;28;20042;-89
2023/12/08 00:45:04;;;;;;;19.48;4.78;;;9.00;71.90;;;;;;4990264;28;20049;-90
2023/12/08 00:47:31;;;;;;;24.67;4.78;;;9.00;72.00;;;;;;4995759;28;20065;-91
2023/12/08 00:49:57;;;;;;;20.40;4.28;;;9.00;72.10;;;;;;5004621;28;20400;-90
2023/12/08 00:52:23;;;;;;;20.45;4.38;;;9.00;72.10;;;;;;5011184;28;20037;-91
2023/12/08 00:54:52;;;;;;;20.55;4.85;;;9.00;72.10;;;;;;5014409;28;20032;-90
2023/12/08 00:57:19;;;;;;;20.58;4.38;;;9.00;72.20;;;;;;5015388;28;20041;-90
2023/12/08 00:59:49;;;;;;;22.67;5.88;;;9.00;72.20;;;;;;5014058;28;20395;-91
2023/12/08 01:02:17;;;;;;;22.17;5.13;;;9.00;72.20;;;;;;5013942;28;20046;-91
2023/12/08 01:04:46;;;;;;;22.50;4.80;;;9.00;72.30;;;;;;5014568;28;20080;-93
2023/12/08 01:07:12;;;;;;;20.40;4.20;;;9.00;72.30;;;;;;5008910;28;20030;-92
2023/12/08 01:09:38;;;;;;;18.90;4.13;;;9.00;72.40;;;;;;5010789;28;20032;-93
2023/12/08 01:12:05;;;;;;;20.08;4.88;;;9.00;72.60;;;;;;5020637;28;20048;-92
2023/12/08 01:14:34;;;;;;;22.85;5.32;;;8.90;72.20;;;;;;5017912;28;20030;-93
2023/12/08 01:17:02;;;;;;;17.25;4.20;;;9.00;72.40;;;;;;5004807;28;20427;-92
2023/12/08 01:19:31;;;;;;;14.90;4.57;;;9.00;72.50;;;;;;5000816;28;20021;-91
2023/12/08 01:21:59;;;;;;;19.33;4.93;;;9.00;72.50;;;;;;5012144;28;20045;-93
2023/12/08 01:24:26;;;;;;;20.52;5.22;;;9.00;72.50;;;;;;5017252;28;20503;-95
2023/12/08 01:26:54;;;;;;;19.02;5.05;;;9.00;72.50;;;;;;5001481;28;20041;-95
2023/12/08 01:29:20;;;;;;;20.85;4.80;;;9.00;72.60;;;;;;4997987;28;20034;-92
2023/12/08 01:31:46;;;;;;;21.77;4.55;;;9.00;72.60;;;;;;5019827;28;20022;-92
2023/12/08 01:34:13;;;;;;;19.17;4.47;;;9.00;72.60;;;;;;5021638;28;20193;-92
2023/12/08 01:36:39;;;;;;;20.48;5.03;;;9.00;72.70;;;;;;4985196;28;20049;-91
2023/12/08 01:39:05;;;;;;;18.60;3.15;;;9.00;72.70;;;;;;5004002;28;21101;-91
2023/12/08 01:41:31;;;;;;;17.65;4.57;;;9.00;72.70;;;;;;5017543;28;20042;-92
2023/12/08 01:43:58;;;;;;;22.48;5.28;;;9.00;72.70;;;;;;5009409;28;20037;-90
2023/12/08 01:46:25;;;;;;;13.93;3.55;;;9.00;72.80;;;;;;5009767;28;20067;-90
2023/12/08 01:48:51;;;;;;;21.13;4.15;;;9.00;72.80;;;;;;4994426;28;20026;-90
2023/12/08 01:51:23;;;;;;;14.48;5.03;;;9.00;72.80;;;;;;4994742;28;20053;-90
2023/12/08 01:53:51;;;;;;;23.40;5.30;;;9.00;72.80;;;;;;4963024;28;20098;-92
2023/12/08 01:56:21;;;;;;;20.15;4.55;;;9.00;72.80;;;;;;4998098;28;20109;-90
2023/12/08 01:58:48;;;;;;;19.65;4.60;;;9.00;72.80;;;;;;4993264;28;20076;-90
2023/12/08 02:01:18;;;;;;;17.83;4.40;;;9.00;72.90;;;;;;4975943;28;20064;-90
2023/12/08 02:03:48;;;;;;;24.85;5.35;;;9.00;72.90;;;;;;4996233;28;20148;-92
2023/12/08 02:06:17;;;;;;;17.50;5.15;;;9.10;73.10;;;;;;4992363;28;20066;-91
2023/12/08 02:08:49;;;;;;;20.88;4.80;;;9.00;72.90;;;;;;4990216;28;20598;-94
2023/12/08 02:11:17;;;;;;;22.25;4.85;;;9.10;73.20;;;;;;4993579;28;20030;-93
2023/12/08 02:13:44;;;;;;;15.38;4.20;;;9.10;73.20;;;;;;4995746;28;20054;-95
2023/12/08 02:16:17;;;;;;;22.70;4.28;;;9.00;73.00;;;;;;4996406;28;20505;-93
2023/12/08 02:18:44;;;;;;;16.90;4.35;;;9.10;73.20;;;;;;4978458;28;20041;-94
2023/12/08 02:21:13;;;;;;;16.35;4.60;;;9.10;73.20;;;;;;5000424;28;20030;-95
2023/12/08 02:23:50;;;;;;;18.30;4.47;;;9.10;73.20;;;;;;4977277;28;20026;-95
2023/12/08 02:26:19;;;;;;;23.98;4.00;;;9.10;73.30;;;;;;4993505;28;20224;-94
2023/12/08 02:28:52;;;;;;;19.92;4.22;;;9.00;73.00;;;;;;4998438;28;20022;-95
2023/12/08 02:31:27;;;;;;;13.73;3.28;;;9.10;73.20;;;;;;4995881;28;20098;-89
2023/12/08 02:33:55;;;;;;;19.17;5.38;;;9.00;73.00;;;;;;4977451;28;20037;-88
2023/12/08 02:36:24;;;;;;;26.55;5.10;;;9.00;73.00;;;;;;4991044;28;20080;-89
2023/12/08 02:38:54;;;;;;;17.25;3.97;;;9.00;73.10;;;;;;4970841;28;20080;-89
2023/12/08 02:41:22;;;;;;;19.65;4.28;;;9.00;73.10;;;;;;4997131;28;20053;-88
2023/12/08 02:43:48;;;;;;;23.15;4.70;;;9.00;73.10;;;;;;4994621;28;20038;-89
2023/12/08 02:46:15;;;;;;;20.02;5.18;;;9.00;73.20;;;;;;4995078;28;20336;-88
2023/12/08 02:48:41;;;;;;;15.40;3.63;;;9.00;73.20;;;;;;4991406;28;20059;-88
2023/12/08 02:51:08;;;;;;;13.43;3.40;;;9.00;73.20;;;;;;4978282;28;20046;-89
2023/12/08 02:53:34;;;;;;;14.15;3.30;;;9.00;73.20;;;;;;4995874;28;20033;-90
2023/12/08 02:56:01;;;;;;;18.30;4.05;;;9.00;73.20;;;;;;4999184;28;20120;-90
2023/12/08 02:58:27;;;;;;;16.88;4.30;;;9.00;73.20;;;;;;5004525;28;20451;-91
2023/12/08 03:00:54;;;;;;;20.55;4.28;;;8.90;73.10;;;;;;4982000;28;20042;-90
2023/12/08 03:03:21;;;;;;;14.63;3.45;;;8.90;73.10;;;;;;4978103;28;20034;-92
2023/12/08 03:05:50;;;;;;;17.60;3.33;;;8.90;73.10;;;;;;4996069;28;20030;-91
2023/12/08 03:08:20;;;;;;;15.35;3.10;;;8.90;73.10;;;;;;4978322;28;20037;-88
2023/12/08 03:10:56;;;;;;;13.60;3.53;;;8.90;73.20;;;;;;4996435;28;20105;-91
2023/12/08 03:13:25;;;;;;;16.08;4.15;;;8.90;73.20;;;;;;4975751;28;20506;-95
2023/12/08 03:15:56;;;;;;;14.30;2.90;;;8.90;73.20;;;;;;4992216;28;20054;-92
2023/12/08 03:18:22;;;;;;;19.75;4.40;;;8.90;73.40;;;;;;4976678;28;20030;-92
2023/12/08 03:20:49;;;;;;;14.20;4.00;;;8.90;73.20;;;;;;4991214;28;20516;-90
2023/12/08 03:23:18;;;;;;;19.60;3.53;;;8.90;73.70;;;;;;4999611;28;20038;-92
2023/12/08 03:25:45;;;;;;;19.77;4.07;;;8.90;73.30;;;;;;4998223;28;20037;-92
2023/12/08 03:28:12;;;;;;;19.27;3.97;;;8.90;73.30;;;;;;4993460;28;20035;-92
2023/12/08 03:30:38;;;;;;;14.45;4.13;;;8.80;73.10;;;;;;4979498;28;20321;-91
2023/12/08 03:33:05;;;;;;;13.25;3.83;;;8.90;73.30;;;;;;4989112;28;20062;-91
2023/12/08 03:35:34;;;;;;;15.98;4.10;;;8.80;73.20;;;;;;4976621;28;20052;-90
2023/12/08 03:38:01;;;;;;;17.40;3.58;;;8.80;73.20;;;;;;4970548;28;20026;-90
2023/12/08 03:40:32;;;;;;;18.63;3.88;;;8.80;73.20;;;;;;5007286;28;20034;-92
2023/12/08 03:42:58;;;;;;;18.17;5.50;;;8.80;73.20;;;;;;4981370;28;20037;-92
2023/12/08 03:45:26;;;;;;;19.48;3.60;;;8.80;73.20;;;;;;4966022;28;20555;-93
2023/12/08 03:47:52;;;;;;;17.98;3.60;;;8.80;73.30;;;;;;4977073;28;20030;-92
2023/12/08 03:50:18;;;;;;;15.65;4.50;;;8.80;73.30;;;;;;5005029;28;20058;-92
2023/12/08 03:52:44;;;;;;;15.60;3.83;;;8.80;73.30;;;;;;4996579;28;20030;-89
2023/12/08 03:55:11;;;;;;;14.98;3.08;;;8.80;73.30;;;;;;5016160;28;20030;-90
2023/12/08 03:57:39;;;;;;;17.05;3.90;;;8.80;73.40;;;;;;4997532;28;20045;-92
2023/12/08 04:00:07;;;;;;;15.55;2.88;;;8.80;73.40;;;;;;4990647;28;20660;-90
2023/12/08 04:02:32;;;;;;;14.38;3.85;;;8.80;73.40;;;;;;4993796;28;20587;-90
2023/12/08 04:04:59;;;;;;;17.35;3.47;;;8.80;73.40;;;;;;4992567;28;20380;-89
2023/12/08 04:07:25;;;;;;;22.35;4.30;;;8.80;73.40;;;;;;4991831;28;20472;-90
2023/12/08 04:09:53;;;;;;;12.98;2.97;;;8.80;73.50;;;;;;4995089;28;20480;-92
2023/12/08 04:12:20;;;;;;;11.63;2.95;;;8.80;73.50;;;;;;4996235;28;20037;-91
2023/12/08 04:14:47;;;;;;;15.93;3.15;;;8.80;73.50;;;;;;4994441;28;20026;-92
2023/12/08 04:17:14;;;;;;;12.20;4.25;;;8.70;73.30;;;;;;4996269;28;20022;-91
2023/12/08 04:19:40;;;;;;;11.82;4.05;;;8.80;73.50;;;;;;4997070;28;20034;-91
2023/12/08 04:22:06;;;;;;;17.80;3.45;;;8.70;73.80;;;;;;4998983;28;20369;-93
2023/12/08 04:24:32;;;;;;;14.52;4.40;;;8.80;73.50;;;;;;4993587;28;20033;-92
2023/12/08 04:26:58;;;;;;;15.05;4.22;;;8.80;73.50;;;;;;5010970;28;20045;-92
2023/12/08 04:29:24;;;;;;;19.83;4.60;;;8.70;73.30;;;;;;4992209;28;20033;-93
2023/12/08 04:31:50;;;;;;;12.52;2.90;;;8.80;74.10;;;;;;4997007;28;20113;-92
2023/12/08 04:34:18;;;;;;;18.80;4.57;;;8.80;73.60;;;;;;4994476;28;20085;-91
2023/12/08 04:36:44;;;;;;;11.68;2.88;;;8.70;73.40;;;;;;5002869;28;20042;-91
2023/12/08 04:39:11;;;;;;;20.77;3.58;;;8.80;73.60;;;;;;4988235;28;20034;-94
2023/12/08 04:41:39;;;;;;;13.43;4.10;;;8.80;73.60;;;;;;4992557;28;20120;-91
2023/12/08 04:44:06;;;;;;;12.70;2.92;;;8.70;73.50;;;;;;4996778;28;20042;-92
2023/12/08 04:46:34;;;;;;;14.85;3.67;;;8.70;73.50;;;;;;4999568;28;20031;-92
2023/12/08 04:49:01;;;;;;;20.25;3.70;;;8.70;73.50;;;;;;5001675;28;20034;-92
2023/12/08 04:51:27;;;;;;;17.85;3.13;;;8.70;73.50;;;;;;4994248;28;20058;-92
2023/12/08 04:53:56;;;;;;;11.60;4.00;;;8.70;73.50;;;;;;5010257;28;20036;-91
2023/12/08 04:56:24;;;;;;;14.30;3.30;;;8.70;73.50;;;;;;4994029;28;20468;-90
2023/12/08 04:58:51;;;;;;;24.10;4.85;;;8.70;73.50;;;;;;4994776;28;20109;-91
2023/12/08 05:01:18;;;;;;;15.13;3.67;;;8.70;73.50;;;;;;4989499;28;20043;-92
2023/12/08 05:03:44;;;;;;;12.25;2.90;;;8.70;73.50;;;;;;4999537;28;20480;-90
2023/12/08 05:06:10;;;;;;;19.38;4.05;;;8.80;73.70;;;;;;4996428;28;20078;-94
2023/12/08 05:08:36;;;;;;;15.23;3.72;;;8.70;73.60;;;;;;4999397;28;20573;-91
2023/12/08 05:11:03;;;;;;;15.95;4.30;;;8.70;73.60;;;;;;4996337;28;20042;-90
2023/12/08 05:13:31;;;;;;;16.83;3.90;;;8.70;73.60;;;;;;5000378;28;20030;-87
2023/12/08 05:15:57;;;;;;;14.43;3.85;;;8.70;73.60;;;;;;4989103;28;20035;-88
2023/12/08 05:18:24;;;;;;;13.38;3.90;;;8.70;73.60;;;;;;4999577;28;20037;-90
2023/12/08 05:20:51;;;;;;;19.90;3.60;;;8.70;73.60;;;;;;4975369;28;20042;-88
2023/12/08 05:23:20;;;;;;;14.15;3.30;;;8.70;73.70;;;;;;5006411;28;20088;-86
2023/12/08 05:26:05;;;;;;;12.82;3.20;;;8.70;73.70;;;;;;4992754;28;20250;-90
2023/12/08 05:28:33;;;;;;;14.90;4.05;;;8.80;73.90;;;;;;4995085;28;20177;-89
2023/12/08 05:30:59;;;;;;;22.20;5.53;;;8.70;73.70;;;;;;5000052;28;20029;-90
2023/12/08 05:33:26;;;;;;;16.52;4.90;;;8.80;74.00;;;;;;4996046;28;20310;-89
2023/12/08 05:35:52;;;;;;;18.70;3.58;;;8.80;74.00;;;;;;4995889;28;20415;-88
2023/12/08 05:38:20;;;;;;;12.88;2.97;;;8.80;74.00;;;;;;5011160;28;20034;-88
2023/12/08 05:40:46;;;;;;;15.65;4.07;;;8.80;74.00;;;;;;4994941;28;20040;-89
2023/12/08 05:43:12;;;;;;;13.70;3.25;;;8.80;74.00;;;;;;4997408;28;20129;-89
2023/12/08 05:45:42;;;;;;;16.17;3.22;;;8.80;74.00;;;;;;4995961;28;20030;-89
2023/12/08 05:48:09;;;;;;;13.30;3.28;;;8.80;74.00;;;;;;4995862;28;20658;-86
2023/12/08 05:50:36;;;;;;;15.95;3.03;;;8.90;74.10;;;;;;4996148;28;20038;-88
2023/12/08 05:53:03;;;;;;;11.13;3.35;;;8.90;74.10;;;;;;4997184;28;20030;-86
2023/12/08 05:55:29;;;;;;;18.13;3.30;;;8.80;73.90;;;;;;4997641;28;20188;-85
2023/12/08 05:57:55;;;;;;;13.05;3.00;;;8.90;74.10;;;;;;4997224;28;20031;-83
2023/12/08 06:00:24;;;;;;;17.08;3.40;;;8.80;73.90;;;;;;4993962;28;20033;-85
2023/12/08 06:02:50;;;;;;;18.10;4.93;;;8.80;73.90;;;;;;4993120;28;20049;-84
2023/12/08 06:05:16;;;;;;;14.55;4.28;;;8.90;74.10;;;;;;4984495;28;20026;-85
2023/12/08 06:07:46;;;;;;;12.30;3.03;;;8.90;74.10;;;;;;5000358;28;20039;-85
2023/12/08 06:10:12;;;;;;;12.75;4.07;;;8.80;73.90;;;;;;4991382;28;20434;-89
2023/12/08 06:12:40;;;;;;;17.88;3.28;;;8.80;74.00;;;;;;4985334;28;20061;-87
2023/12/08 06:15:07;;;;;;;12.05;3.30;;;8.90;74.10;;;;;;4987367;28;21202;-84
2023/12/08 06:17:35;;;;;;;11.25;3.15;;;8.80;74.00;;;;;;4989635;28;20050;-84
2023/12/08 06:20:01;;;;;;;17.83;3.20;;;8.80;73.90;;;;;;4978921;28;20114;-84
2023/12/08 06:22:28;;;;;;;14.55;3.53;;;8.80;73.90;;;;;;4987713;28;20074;-92
2023/12/08 06:24:57;;;;;;;20.55;4.25;;;8.80;73.90;;;;;;4991413;28;20839;-91
2023/12/08 06:27:25;;;;;;;16.58;3.63;;;8.80;73.90;;;;;;4992166;28;20026;-88
2023/12/08 06:29:51;;;;;;;15.63;3.80;;;8.80;74.00;;;;;;5011943;28;20030;-92
2023/12/08 06:32:21;;;;;;;17.58;3.65;;;8.80;73.90;;;;;;4996288;28;20049;-95
2023/12/08 06:34:49;;;;;;;19.13;3.72;;;8.80;73.90;;;;;;5007933;28;20372;-96
2023/12/08 06:37:21;;;;;;;17.30;4.00;;;8.80;73.90;;;;;;4993139;28;20046;-93
2023/12/08 06:39:47;;;;;;;21.80;4.85;;;8.70;73.70;;;;;;4993168;28;20868;-86
2023/12/08 06:42:15;;;;;;;15.85;3.58;;;8.80;73.90;;;;;;4986247;28;20049;-90
2023/12/08 06:44:42;;;;;;;12.73;4.38;;;8.70;73.70;;;;;;4990759;28;20022;-92
2023/12/08 06:47:10;;;;;;;17.92;3.78;;;8.80;73.90;;;;;;4996335;28;20030;-94
2023/12/08 06:49:35;;;;;;;16.85;4.13;;;8.70;73.80;;;;;;4991112;28;20054;-96
2023/12/08 06:52:03;;;;;;;19.23;4.93;;;8.70;73.80;;;;;;5025018;28;20073;-84
2023/12/08 06:54:30;;;;;;;16.75;3.35;;;8.80;74.00;;;;;;5020344;28;20041;-92
2023/12/08 06:56:59;;;;;;;21.30;4.57;;;8.70;73.80;;;;;;5024472;28;20137;-95
2023/12/08 06:59:25;;;;;;;19.85;4.40;;;8.70;73.90;;;;;;5027308;28;20032;-96
2023/12/08 07:01:59;;;;;;;15.00;3.90;;;8.70;73.90;;;;;;5035302;28;20089;-96
2023/12/08 07:04:43;;;;;;;14.57;3.92;;;8.70;73.90;;;;;;5036752;28;20033;-96
2023/12/08 07:07:16;;;;;;;17.10;3.80;;;8.70;74.00;;;;;;5008902;28;20121;-92
2023/12/08 07:09:42;;;;;;;14.10;3.65;;;8.70;73.90;;;;;;5022470;28;20006;-94
2023/12/08 07:12:10;;;;;;;20.98;4.05;;;8.80;74.10;;;;;;4987681;28;20097;-94
2023/12/08 07:14:39;;;;;;;46.05;9.82;;;8.70;74.00;;;;;;5011281;28;20556;-87
2023/12/08 07:17:12;;;;;;;38.90;7.95;;;8.70;74.20;;;;;;5012889;28;20065;-87
2023/12/08 07:19:42;;;;;;;;;;;8.70;74.30;;;;;;5017420;28;20025;-89
2023/12/08 07:22:10;;;;;;;31.13;6.40;;;8.80;74.50;;;;;;4984815;28;19929;-89
2023/12/08 07:24:39;;;;;;;33.95;6.90;;;8.80;74.40;;;;;;4983932;28;20029;-88
2023/12/08 07:27:06;;;;;;;33.00;5.40;;;8.90;74.60;;;;;;4998978;28;20053;-86
2023/12/08 07:29:34;;;;;;;30.75;5.18;;;8.90;74.70;;;;;;4992302;28;20030;-84
2023/12/08 07:32:06;;;;;;;25.85;5.00;;;8.90;74.80;;;;;;5010400;28;20022;-89
2023/12/08 07:34:33;;;;;;;29.45;4.53;;;8.90;74.90;;;;;;5011205;28;20046;-90
2023/12/08 07:36:59;;;;;;;26.45;4.43;;;8.90;75.00;;;;;;4973267;28;20030;-87
2023/12/08 07:39:33;;;;;;;19.75;4.38;;;9.10;75.60;;;;;;5010733;28;20026;-85
2023/12/08 07:41:59;;;;;;;28.15;5.90;;;9.10;75.90;;;;;;4977744;28;20370;-85
2023/12/08 07:44:34;;;;;;;24.25;6.38;;;9.30;76.30;;;;;;5010921;28;20403;-85
2023/12/08 07:47:04;;;;;;;27.33;4.57;;;9.40;76.60;;;;;;5014636;28;20038;-85
2023/12/08 07:49:33;;;;;;;15.88;4.40;;;9.50;76.60;;;;;;4996213;28;20037;-85
2023/12/08 07:52:05;;;;;;;21.48;4.43;;;9.70;76.90;;;;;;5016074;28;20611;-84
2023/12/08 07:54:32;;;;;;;20.55;4.90;;;9.80;77.00;;;;;;5025110;28;20034;-92
2023/12/08 07:56:58;;;;;;;15.63;4.18;;;9.90;76.90;;;;;;5017833;28;20038;-93
2023/12/08 07:59:25;;;;;;;12.88;3.97;;;10.00;76.80;;;;;;5014798;28;20040;-91
2023/12/08 08:01:54;;;;;;;16.27;5.45;;;10.10;76.70;;;;;;5018436;28;20042;-90
2023/12/08 08:04:22;;;;;;;16.88;3.63;;;10.10;76.50;;;;;;5018047;28;20026;-92
2023/12/08 08:06:47;;;;;;;16.63;4.13;;;10.10;76.40;;;;;;4997466;28;20041;-94
2023/12/08 08:09:14;;;;;;;17.20;4.13;;;10.10;76.40;;;;;;5015442;28;20045;-91
2023/12/08 08:11:40;;;;;;;17.75;4.05;;;10.10;76.40;;;;;;5013059;28;20495;-90
2023/12/08 08:14:06;;;;;;;15.73;3.42;;;10.00;76.20;;;;;;5012620;28;20511;-92
2023/12/08 08:16:33;;;;;;;17.60;3.58;;;10.00;76.20;;;;;;5017420;28;20057;-92
2023/12/08 08:19:03;;;;;;;13.38;3.63;;;10.00;76.20;;;;;;4999414;28;20034;-92
2023/12/08 08:21:36;;;;;;;13.02;3.75;;;9.90;76.00;;;;;;5006421;28;20097;-94
2023/12/08 08:24:06;;;;;;;16.70;3.67;;;9.90;76.00;;;;;;4995426;28;20519;-89
2023/12/08 08:26:32;;;;;;;19.13;3.17;;;9.90;76.00;;;;;;5003214;28;20428;-89
2023/12/08 08:28:59;;;;;;;16.02;4.57;;;9.80;75.90;;;;;;4993270;28;20030;-89
2023/12/08 08:31:26;;;;;;;13.93;4.07;;;9.80;75.90;;;;;;5009458;28;20172;-89
2023/12/08 08:33:53;;;;;;;18.08;3.85;;;9.70;75.70;;;;;;5011789;28;20038;-89
2023/12/08 08:36:19;;;;;;;17.10;4.05;;;9.70;75.70;;;;;;4992028;28;20103;-91
2023/12/08 08:38:46;;;;;;;15.45;2.90;;;9.70;75.70;;;;;;5010655;28;20552;-90
2023/12/08 08:41:15;;;;;;;22.08;4.75;;;9.70;75.70;;;;;;4992686;28;20045;-91
2023/12/08 08:43:48;;;;;;;14.25;3.92;;;9.60;75.50;;;;;;5001759;28;20403;-86
2023/12/08 08:46:14;;;;;;;16.45;4.00;;;9.70;75.70;;;;;;5007306;28;20029;-86
2023/12/08 08:48:43;;;;;;;17.10;4.68;;;9.60;75.50;;;;;;5011310;28;20045;-86
2023/12/08 08:51:09;;;;;;;17.33;3.47;;;9.60;75.50;;;;;;4999129;28;20042;-86
2023/12/08 08:53:38;;;;;;;16.63;3.80;;;9.60;75.50;;;;;;4960044;28;20038;-86
2023/12/08 08:56:05;;;;;;;13.18;4.18;;;9.60;75.40;;;;;;4991559;28;20076;-86
2023/12/08 08:58:34;;;;;;;14.25;3.22;;;9.60;75.40;;;;;;4979150;28;20551;-86
2023/12/08 09:01:01;;;;;;;18.10;4.82;;;9.60;75.40;;;;;;4976614;28;20043;-85
2023/12/08 09:03:27;;;;;;;26.48;4.38;;;9.60;75.40;;;;;;4993756;28;20118;-86
2023/12/08 09:05:56;;;;;;;15.85;4.60;;;9.70;75.50;;;;;;4986258;28;20058;-86
2023/12/08 09:08:28;;;;;;;12.05;3.15;;;9.70;75.50;;;;;;4990233;28;20035;-86
2023/12/08 09:10:57;;;;;;;11.88;3.20;;;9.70;75.40;;;;;;4984863;28;20485;-85
2023/12/08 09:13:29;;;;;;;18.83;3.78;;;9.70;75.40;;;;;;4996297;28;20060;-86
2023/12/08 09:15:56;;;;;;;13.98;3.80;;;9.70;75.30;;;;;;4991368;28;20076;-87
2023/12/08 09:18:24;;;;;;;16.88;3.67;;;9.80;75.50;;;;;;4979162;28;20467;-86
2023/12/08 09:20:53;;;;;;;14.57;3.47;;;9.80;75.40;;;;;;4995625;28;20074;-86
2023/12/08 09:23:19;;;;;;;15.18;3.95;;;9.80;75.30;;;;;;4992035;28;20026;-85
2023/12/08 09:25:48;;;;;;;18.13;3.97;;;9.80;75.30;;;;;;5001848;28;20030;-87
2023/12/08 09:28:17;;;;;;;16.92;3.58;;;9.90;75.40;;;;;;4998904;28;20050;-87
2023/12/08 09:30:45;;;;;;;14.90;3.70;;;9.80;75.20;;;;;;4990903;28;20379;-86
2023/12/08 09:33:11;;;;;;;17.17;4.10;;;9.80;75.20;;;;;;4961894;28;20033;-88
2023/12/08 09:35:38;;;;;;;16.52;4.30;;;9.90;75.30;;;;;;5000693;28;20475;-87
2023/12/08 09:38:08;;;;;;;19.10;3.55;;;9.90;75.30;;;;;;4994515;28;20126;-86
2023/12/08 09:40:37;;;;;;;13.50;2.95;;;9.90;75.30;;;;;;4976674;28;20037;-86
2023/12/08 09:43:22;;;;;;;15.30;4.75;;;9.90;75.30;;;;;;4985935;28;20026;-86
2023/12/08 09:45:50;;;;;;;15.00;3.42;;;9.90;75.20;;;;;;4993859;28;20045;-88
2023/12/08 09:48:20;;;;;;;13.70;3.03;;;9.90;75.20;;;;;;5003630;28;20026;-86
2023/12/08 09:50:50;;;;;;;22.38;3.95;;;9.90;75.20;;;;;;5019228;28;20045;-86
2023/12/08 09:53:17;;;;;;;14.70;4.20;;;10.00;75.30;;;;;;5028619;28;20029;-86
2023/12/08 09:55:46;;;;;;;12.98;3.35;;;10.00;75.30;;;;;;5029957;28;20073;-86
2023/12/08 09:58:14;;;;;;;23.63;3.67;;;10.00;75.20;;;;;;5025961;28;20022;-82
2023/12/08 10:00:48;;;;;;;;;;;10.00;75.20;;;;;;5026239;28;20038;-83
2023/12/08 10:03:15;;;;;;;19.23;4.38;;;10.10;75.30;;;;;;5010895;28;19975;-84
2023/12/08 10:05:42;;;;;;;13.30;4.30;;;10.10;75.20;;;;;;4988403;28;20049;-83
2023/12/08 10:08:09;;;;;;;17.70;3.92;;;10.20;75.30;;;;;;5024161;28;20042;-84
2023/12/08 10:10:37;;;;;;;18.25;4.30;;;10.20;75.30;;;;;;5008018;28;20049;-83
2023/12/08 10:13:04;;;;;;;18.35;5.05;;;10.30;75.40;;;;;;5025040;28;20037;-86
2023/12/08 10:15:31;;;;;;;20.15;4.43;;;10.40;75.40;;;;;;5012552;28;20046;-85
2023/12/08 10:17:58;;;;;;;13.25;4.03;;;10.50;75.40;;;;;;4989146;28;20036;-86
2023/12/08 10:20:26;;;;;;;11.90;3.53;;;10.60;75.50;;;;;;5005771;28;20206;-84
2023/12/08 10:22:54;;;;;;;14.10;4.47;;;10.70;75.50;;;;;;4986996;28;20038;-85
2023/12/08 10:25:24;;;;;;;13.23;3.80;;;10.70;75.40;;;;;;5006933;28;20030;-85
2023/12/08 10:27:55;;;;;;;14.45;4.93;;;10.80;75.40;;;;;;4989459;28;20053;-86
2023/12/08 10:30:24;;;;;;;23.27;4.40;;;10.90;75.50;;;;;;4988735;28;20034;-85
2023/12/08 10:32:50;;;;;;;14.68;3.88;;;10.90;75.40;;;;;;5005301;28;20036;-86
2023/12/08 10:35:16;;;;;;;15.35;4.28;;;11.00;75.50;;;;;;5005973;28;20033;-85
2023/12/08 10:37:44;;;;;;;13.95;4.20;;;11.10;75.50;;;;;;5004562;28;20041;-86
2023/12/08 10:40:12;;;;;;;16.98;3.65;;;11.10;75.50;;;;;;4984756;28;20038;-85
2023/12/08 10:42:40;;;;;;;16.10;4.82;;;11.20;75.50;;;;;;4988413;28;20053;-86
2023/12/08 10:45:10;;;;;;;12.10;3.67;;;11.20;75.70;;;;;;5006499;28;20025;-85
2023/12/08 10:47:43;;;;;;;15.98;3.35;;;11.30;75.50;;;;;;5006433;28;20033;-84
2023/12/08 10:50:09;;;;;;;15.90;3.75;;;11.40;75.60;;;;;;5001570;28;20542;-84
2023/12/08 10:52:38;;;;;;;17.60;3.67;;;11.40;75.50;;;;;;5002098;28;20061;-85
2023/12/08 10:55:09;;;;;;;17.27;3.15;;;11.50;75.50;;;;;;4987607;28;20126;-85
2023/12/08 10:57:37;;;;;;;15.48;3.65;;;11.50;75.40;;;;;;4988842;28;20061;-87
2023/12/08 11:00:17;;;;;;;19.75;4.90;;;11.60;75.50;;;;;;5006454;28;20096;-86
2023/12/08 11:02:50;;;;;;;15.52;4.28;;;11.70;75.50;;;;;;5006338;28;20044;-87
2023/12/08 11:05:28;;;;;;;19.85;4.50;;;11.70;75.30;;;;;;5001635;28;20118;-88
2023/12/08 11:07:58;;;;;;;17.05;4.85;;;11.80;75.30;;;;;;4987908;28;20285;-85
2023/12/08 11:10:31;;;;;;;17.75;4.95;;;11.80;75.20;;;;;;5007882;28;20040;-85
2023/12/08 11:13:11;;;;;;;14.57;3.42;;;11.90;75.30;;;;;;5007212;28;20531;-86
2023/12/08 11:15:46;;;;;;;15.10;2.85;;;11.90;75.30;;;;;;4988832;28;20100;-87
2023/12/08 11:18:24;;;;;;;16.38;3.80;;;12.00;75.30;;;;;;4988204;28;20034;-88
2023/12/08 11:20:50;;;;;;;14.35;4.95;;;12.00;75.20;;;;;;4973124;28;20042;-86
2023/12/08 11:23:18;;;;;;;17.70;3.05;;;12.10;75.20;;;;;;5006164;28;20037;-86
2023/12/08 11:26:05;;;;;;;20.83;4.60;;;12.10;75.10;;;;;;5006560;28;20026;-89
2023/12/08 11:29:10;;;;;;;19.25;4.47;;;12.10;75.00;;;;;;5003105;28;20562;-83
2023/12/08 11:32:01;;;;;;;13.45;3.72;;;12.10;74.90;;;;;;4978258;28;20041;-85
2023/12/08 11:34:37;;;;;;;14.48;4.18;;;12.10;74.80;;;;;;4989317;28;20404;-84
2023/12/08 11:37:09;;;;;;;11.93;3.40;;;12.20;74.90;;;;;;4987364;28;20046;-86
2023/12/08 11:39:42;;;;;;;18.75;4.28;;;12.20;74.90;;;;;;5003865;28;20086;-84
2023/12/08 11:42:13;;;;;;;12.52;3.80;;;12.20;74.70;;;;;;5005330;28;20052;-84
2023/12/08 11:44:45;;;;;;;20.50;3.75;;;12.30;74.80;;;;;;5001865;28;20116;-84
2023/12/08 11:47:16;;;;;;;19.23;4.50;;;12.30;74.60;;;;;;5009514;28;20033;-86
2023/12/08 11:49:44;;;;;;;16.80;3.38;;;12.40;74.70;;;;;;4980414;28;20377;-86
2023/12/08 11:52:19;;;;;;;13.90;3.28;;;12.50;74.80;;;;;;5003100;28;20025;-86
2023/12/08 11:54:58;;;;;;;19.13;3.97;;;12.50;74.70;;;;;;4984532;28;20137;-84
2023/12/08 11:57:25;;;;;;;18.58;6.03;;;12.50;74.50;;;;;;4984410;28;20497;-85
2023/12/08 11:59:53;;;;;;;16.58;3.67;;;12.60;74.60;;;;;;5007045;28;20494;-90
2023/12/08 12:02:23;;;;;;;17.52;3.78;;;12.60;74.40;;;;;;4994868;28;20124;-84
2023/12/08 12:04:49;;;;;;;17.38;3.78;;;12.70;74.50;;;;;;5004316;28;20037;-84
2023/12/08 12:07:22;;;;;;;11.32;2.95;;;12.60;74.20;;;;;;4984388;28;20137;-93
2023/12/08 12:09:55;;;;;;;10.85;2.95;;;12.70;74.30;;;;;;4982549;28;20030;-92
2023/12/08 12:12:29;;;;;;;10.77;2.95;;;12.60;74.00;;;;;;4991542;28;20057;-91
2023/12/08 12:15:04;;;;;;;18.70;3.42;;;12.60;73.90;;;;;;5009078;28;20030;-91
2023/12/08 12:17:30;;;;;;;10.70;2.78;;;12.60;74.50;;;;;;4992818;28;20085;-91
2023/12/08 12:19:57;;;;;;;17.45;3.72;;;12.60;73.90;;;;;;5013361;28;20326;-88
2023/12/08 12:22:24;;;;;;;11.23;3.17;;;12.70;74.00;;;;;;5005911;28;20144;-89
2023/12/08 12:24:54;;;;;;;15.27;3.42;;;12.80;74.00;;;;;;5007489;28;20482;-90
2023/12/08 12:27:20;;;;;;;12.02;2.83;;;12.80;73.90;;;;;;5010326;28;20030;-89
2023/12/08 12:29:46;;;;;;;12.00;3.00;;;12.90;73.80;;;;;;5010556;28;20290;-90
2023/12/08 12:32:12;;;;;;;10.48;3.03;;;12.90;73.60;;;;;;5009229;28;20080;-88
2023/12/08 12:34:39;;;;;;;10.25;2.70;;;13.00;73.60;;;;;;5008272;28;20357;-88
2023/12/08 12:37:08;;;;;;;14.10;3.53;;;13.00;73.30;;;;;;4991598;28;20038;-89
2023/12/08 12:39:35;;;;;;;11.65;3.97;;;13.00;73.10;;;;;;5006181;28;20026;-92
2023/12/08 12:42:02;;;;;;;12.85;3.05;;;13.10;73.20;;;;;;5009072;28;20038;-89
2023/12/08 12:44:44;;;;;;;13.95;2.97;;;13.00;72.90;;;;;;5009086;28;20049;-91
2023/12/08 12:47:12;;;;;;;14.00;2.60;;;13.00;72.70;;;;;;5001132;28;20042;-91
2023/12/08 12:49:58;;;;;;;15.52;3.47;;;13.00;72.80;;;;;;5009345;28;20578;-88
2023/12/08 12:52:28;;;;;;;15.93;4.13;;;13.00;72.70;;;;;;5005069;28;20038;-88